DLH646 UAAA-EDDF
Flight info
| Callsign | DLH646 |
|---|---|
| Flight time | N/A |
| Altitude | 36000 |
| Route | TIPSA1A TIPSA M610 ARBOL Z621 GENDI N147 OTBOR/N0467F360 A480 TIMGA B476 OGLID/N0465F380 B476 METKA L88 NIJAT N644 LAGAS DCT SARPI UM10 GOKPA UL746 ODERO DCT OPT DCT IRLOX DCT GANNA/N0466F400 DCT PATAK DCT RAPET T170 VAGAB/N0395F240 T170 GAPLA T178 KERAX KERAX5A |
| Aircraft | A346/H-SDE2E3FGHIJ3J4J5M1P2RWXYZ/LB1D1 |
Departure
| Time | 2026-04-19 03:15 |
|---|---|
| Airport | Almaty International Airport (UAAA) |
Arrival
| Time | N/A |
|---|---|
| Airport | Frankfurt Main Airport (EDDF) |
| Time | Latitude | Longitude | Altitude | Speed | Heading |
|---|---|---|---|---|---|
| 2026-04-19 02:41 | 43.34781 | 77.01258 | 2237 ft | 0 kts | 227° |
| 2026-04-19 02:56 | 43.34789 | 77.01269 | 2238 ft | 4 kts | 224° |
| 2026-04-19 02:56 | 43.34808 | 77.01295 | 2237 ft | 4 kts | 224° |
| 2026-04-19 02:56 | 43.34821 | 77.01319 | 2236 ft | 3 kts | 242° |
| 2026-04-19 02:56 | 43.34834 | 77.01342 | 2234 ft | 4 kts | 212° |
| 2026-04-19 02:57 | 43.34850 | 77.01348 | 2237 ft | 4 kts | 171° |
| 2026-04-19 02:57 | 43.34874 | 77.01337 | 2237 ft | 4 kts | 156° |
| 2026-04-19 02:57 | 43.34895 | 77.01325 | 2234 ft | 1 kts | 160° |
| 2026-04-19 03:04 | 43.34892 | 77.01326 | 2239 ft | 1 kts | 160° |
| 2026-04-19 03:04 | 43.34876 | 77.01334 | 2232 ft | 4 kts | 160° |
| 2026-04-19 03:04 | 43.34842 | 77.01365 | 2239 ft | 9 kts | 127° |
| 2026-04-19 03:04 | 43.34827 | 77.01480 | 2239 ft | 16 kts | 93° |
| 2026-04-19 03:05 | 43.34819 | 77.01660 | 2239 ft | 22 kts | 94° |
| 2026-04-19 03:05 | 43.34808 | 77.01884 | 2236 ft | 24 kts | 94° |
| 2026-04-19 03:05 | 43.34797 | 77.02118 | 2240 ft | 25 kts | 94° |
| 2026-04-19 03:05 | 43.34783 | 77.02358 | 2238 ft | 25 kts | 95° |
| 2026-04-19 03:06 | 43.34774 | 77.02601 | 2234 ft | 26 kts | 89° |
| 2026-04-19 03:06 | 43.34779 | 77.02854 | 2239 ft | 27 kts | 88° |
| 2026-04-19 03:06 | 43.34797 | 77.03107 | 2238 ft | 27 kts | 67° |
| 2026-04-19 03:06 | 43.34903 | 77.03321 | 2234 ft | 27 kts | 55° |
| 2026-04-19 03:07 | 43.35007 | 77.03534 | 2242 ft | 27 kts | 56° |
| 2026-04-19 03:07 | 43.35112 | 77.03748 | 2242 ft | 27 kts | 55° |
| 2026-04-19 03:07 | 43.35221 | 77.03966 | 2242 ft | 28 kts | 55° |
| 2026-04-19 03:07 | 43.35333 | 77.04187 | 2241 ft | 28 kts | 55° |
| 2026-04-19 03:08 | 43.35443 | 77.04408 | 2243 ft | 28 kts | 55° |
| 2026-04-19 03:08 | 43.35540 | 77.04602 | 2245 ft | 24 kts | 55° |
| 2026-04-19 03:08 | 43.35638 | 77.04798 | 2245 ft | 25 kts | 55° |
| 2026-04-19 03:08 | 43.35739 | 77.05000 | 2243 ft | 26 kts | 55° |
| 2026-04-19 03:09 | 43.35844 | 77.05210 | 2244 ft | 27 kts | 55° |
| 2026-04-19 03:09 | 43.35949 | 77.05421 | 2247 ft | 26 kts | 56° |
| 2026-04-19 03:09 | 43.36053 | 77.05631 | 2248 ft | 26 kts | 56° |
| 2026-04-19 03:09 | 43.36155 | 77.05838 | 2248 ft | 27 kts | 56° |
| 2026-04-19 03:10 | 43.36262 | 77.06052 | 2248 ft | 27 kts | 56° |
| 2026-04-19 03:10 | 43.36351 | 77.06186 | 2246 ft | 18 kts | 19° |
| 2026-04-19 03:10 | 43.36465 | 77.06170 | 2246 ft | 15 kts | 327° |
| 2026-04-19 03:10 | 43.36557 | 77.06192 | 2245 ft | 16 kts | 54° |
| 2026-04-19 03:11 | 43.36621 | 77.06321 | 2246 ft | 16 kts | 56° |
| 2026-04-19 03:11 | 43.36684 | 77.06449 | 2248 ft | 16 kts | 56° |
| 2026-04-19 03:11 | 43.36749 | 77.06579 | 2248 ft | 17 kts | 56° |
| 2026-04-19 03:11 | 43.36818 | 77.06718 | 2249 ft | 18 kts | 56° |
| 2026-04-19 03:12 | 43.36894 | 77.06872 | 2248 ft | 21 kts | 56° |
| 2026-04-19 03:12 | 43.36985 | 77.06980 | 2248 ft | 12 kts | 21° |
| 2026-04-19 03:12 | 43.37029 | 77.07060 | 2247 ft | 10 kts | 110° |
| 2026-04-19 03:12 | 43.36999 | 77.07078 | 2247 ft | 2 kts | 204° |
| 2026-04-19 03:13 | 43.36996 | 77.07075 | 2247 ft | 0 kts | 228° |
| 2026-04-19 03:13 | 43.36992 | 77.07066 | 2247 ft | 0 kts | 236° |
| 2026-04-19 03:13 | 43.36991 | 77.07064 | 2247 ft | 1 kts | 236° |
| 2026-04-19 03:13 | 43.36962 | 77.07006 | 2248 ft | 26 kts | 236° |
| 2026-04-19 03:14 | 43.36747 | 77.06564 | 2248 ft | 83 kts | 236° |
| 2026-04-19 03:14 | 43.36319 | 77.05712 | 2244 ft | 132 kts | 235° |
| 2026-04-19 03:14 | 43.35719 | 77.04507 | 2240 ft | 172 kts | 235° |
| 2026-04-19 03:14 | 43.34985 | 77.03041 | 2399 ft | 194 kts | 236° |
| 2026-04-19 03:15 | 43.34214 | 77.01490 | 2898 ft | 198 kts | 235° |
| 2026-04-19 03:15 | 43.33423 | 76.99919 | 3503 ft | 202 kts | 236° |
| 2026-04-19 03:15 | 43.32612 | 76.98324 | 4055 ft | 204 kts | 234° |
| 2026-04-19 03:15 | 43.31773 | 76.96718 | 4515 ft | 211 kts | 234° |
| 2026-04-19 03:16 | 43.30964 | 76.94991 | 4922 ft | 220 kts | 245° |
| 2026-04-19 03:16 | 43.30768 | 76.92922 | 5371 ft | 224 kts | 284° |
| 2026-04-19 03:16 | 43.31516 | 76.91095 | 5997 ft | 221 kts | 314° |
| 2026-04-19 03:16 | 43.32773 | 76.89864 | 6473 ft | 229 kts | 333° |
| 2026-04-19 03:17 | 43.34260 | 76.88903 | 6775 ft | 244 kts | 334° |
| 2026-04-19 03:17 | 43.35854 | 76.87864 | 6985 ft | 265 kts | 333° |
| 2026-04-19 03:17 | 43.37572 | 76.86691 | 7245 ft | 283 kts | 333° |
| 2026-04-19 03:17 | 43.39358 | 76.85471 | 7875 ft | 289 kts | 333° |
| 2026-04-19 03:18 | 43.41177 | 76.84243 | 8627 ft | 291 kts | 333° |
| 2026-04-19 03:18 | 43.42998 | 76.82996 | 9399 ft | 295 kts | 332° |
| 2026-04-19 03:18 | 43.44793 | 76.81604 | 9852 ft | 297 kts | 320° |
| 2026-04-19 03:18 | 43.46202 | 76.79538 | 10080 ft | 299 kts | 300° |
| 2026-04-19 03:19 | 43.47124 | 76.76906 | 10469 ft | 312 kts | 290° |
| 2026-04-19 03:19 | 43.47948 | 76.74044 | 10811 ft | 329 kts | 290° |
| 2026-04-19 03:19 | 43.48806 | 76.71026 | 11123 ft | 347 kts | 290° |
| 2026-04-19 03:19 | 43.49716 | 76.67858 | 11414 ft | 363 kts | 290° |
| 2026-04-19 03:20 | 43.50680 | 76.64552 | 11712 ft | 378 kts | 291° |
| 2026-04-19 03:20 | 43.51677 | 76.61155 | 12267 ft | 385 kts | 291° |
| 2026-04-19 03:20 | 43.52689 | 76.57726 | 13009 ft | 387 kts | 291° |
| 2026-04-19 03:20 | 43.53701 | 76.54273 | 13778 ft | 389 kts | 291° |
| 2026-04-19 03:21 | 43.54703 | 76.50846 | 14449 ft | 391 kts | 291° |
| 2026-04-19 03:21 | 43.55725 | 76.47352 | 15165 ft | 393 kts | 291° |
| 2026-04-19 03:21 | 43.56747 | 76.43837 | 15842 ft | 396 kts | 290° |
| 2026-04-19 03:21 | 43.57774 | 76.40298 | 16549 ft | 398 kts | 290° |
| 2026-04-19 03:22 | 43.58789 | 76.36739 | 17272 ft | 399 kts | 288° |
| 2026-04-19 03:22 | 43.59590 | 76.33070 | 18004 ft | 399 kts | 282° |
| 2026-04-19 03:22 | 43.60102 | 76.29304 | 18678 ft | 399 kts | 276° |
| 2026-04-19 03:22 | 43.60362 | 76.25488 | 19284 ft | 400 kts | 272° |
| 2026-04-19 03:23 | 43.60552 | 76.21644 | 19883 ft | 402 kts | 272° |
| 2026-04-19 03:23 | 43.60730 | 76.17786 | 20478 ft | 404 kts | 271° |
| 2026-04-19 03:23 | 43.60907 | 76.13910 | 21071 ft | 405 kts | 271° |
| 2026-04-19 03:23 | 43.61087 | 76.10013 | 21685 ft | 406 kts | 270° |
| 2026-04-19 03:24 | 43.61266 | 76.06108 | 22289 ft | 408 kts | 270° |
| 2026-04-19 03:24 | 43.61444 | 76.02193 | 22835 ft | 409 kts | 270° |
| 2026-04-19 03:24 | 43.61621 | 75.98267 | 23356 ft | 411 kts | 269° |
| 2026-04-19 03:24 | 43.61799 | 75.94319 | 23835 ft | 413 kts | 269° |
| 2026-04-19 03:25 | 43.61976 | 75.90346 | 24242 ft | 415 kts | 269° |
| 2026-04-19 03:25 | 43.62153 | 75.86356 | 24662 ft | 418 kts | 269° |
| 2026-04-19 03:25 | 43.62330 | 75.82340 | 25093 ft | 420 kts | 269° |
| 2026-04-19 03:25 | 43.62508 | 75.78296 | 25531 ft | 423 kts | 268° |
| 2026-04-19 03:26 | 43.62687 | 75.74228 | 25921 ft | 426 kts | 268° |
| 2026-04-19 03:26 | 43.62865 | 75.70124 | 26323 ft | 429 kts | 268° |
| 2026-04-19 03:26 | 43.63040 | 75.66005 | 26746 ft | 431 kts | 267° |
| 2026-04-19 03:26 | 43.63215 | 75.61864 | 27165 ft | 433 kts | 267° |
| 2026-04-19 03:27 | 43.63390 | 75.57696 | 27571 ft | 435 kts | 267° |
| 2026-04-19 03:27 | 43.63564 | 75.53512 | 27980 ft | 437 kts | 267° |
| 2026-04-19 03:27 | 43.63739 | 75.49319 | 28509 ft | 436 kts | 266° |
| 2026-04-19 03:27 | 43.63912 | 75.45150 | 29141 ft | 433 kts | 266° |
| 2026-04-19 03:28 | 43.64084 | 75.41004 | 29804 ft | 430 kts | 265° |
| 2026-04-19 03:28 | 43.64253 | 75.36889 | 30387 ft | 428 kts | 265° |
| 2026-04-19 03:28 | 43.64416 | 75.32801 | 30928 ft | 424 kts | 265° |
| 2026-04-19 03:28 | 43.64574 | 75.28747 | 31513 ft | 420 kts | 265° |
| 2026-04-19 03:29 | 43.64730 | 75.24740 | 32117 ft | 415 kts | 264° |
| 2026-04-19 03:29 | 43.64883 | 75.20780 | 32725 ft | 410 kts | 264° |
| 2026-04-19 03:29 | 43.65031 | 75.16860 | 33375 ft | 405 kts | 265° |
| 2026-04-19 03:29 | 43.65179 | 75.12968 | 33998 ft | 400 kts | 264° |
| 2026-04-19 03:30 | 43.65323 | 75.09118 | 34486 ft | 397 kts | 265° |
| 2026-04-19 03:30 | 43.65460 | 75.05309 | 34841 ft | 396 kts | 265° |
| 2026-04-19 03:30 | 43.65596 | 75.01491 | 35060 ft | 399 kts | 265° |
| 2026-04-19 03:30 | 43.65734 | 74.97657 | 35272 ft | 401 kts | 266° |
| 2026-04-19 03:31 | 43.65872 | 74.93801 | 35504 ft | 402 kts | 266° |
| 2026-04-19 03:31 | 43.66011 | 74.89928 | 35746 ft | 403 kts | 266° |
| 2026-04-19 03:31 | 43.66149 | 74.86051 | 35981 ft | 404 kts | 266° |
| 2026-04-19 03:31 | 43.66286 | 74.82160 | 36215 ft | 405 kts | 266° |
| 2026-04-19 03:32 | 43.66422 | 74.78262 | 36417 ft | 407 kts | 267° |
| 2026-04-19 03:32 | 43.66558 | 74.74346 | 36603 ft | 409 kts | 267° |
| 2026-04-19 03:32 | 43.66693 | 74.70410 | 36771 ft | 411 kts | 267° |
| 2026-04-19 03:32 | 43.66828 | 74.66452 | 36956 ft | 413 kts | 267° |
| 2026-04-19 03:33 | 43.66961 | 74.62484 | 37115 ft | 414 kts | 268° |
| 2026-04-19 03:33 | 43.67093 | 74.58494 | 37273 ft | 416 kts | 268° |
| 2026-04-19 03:33 | 43.67225 | 74.54483 | 37432 ft | 418 kts | 268° |
| 2026-04-19 03:33 | 43.67356 | 74.50467 | 37580 ft | 419 kts | 268° |
| 2026-04-19 03:34 | 43.67486 | 74.46431 | 37736 ft | 421 kts | 268° |
| 2026-04-19 03:34 | 43.67616 | 74.42380 | 37908 ft | 422 kts | 268° |
| 2026-04-19 03:34 | 43.67744 | 74.38319 | 38043 ft | 423 kts | 268° |
| 2026-04-19 03:35 | 43.67994 | 74.30145 | 38100 ft | 427 kts | 269° |
| 2026-04-19 03:35 | 43.68245 | 74.21921 | 38099 ft | 428 kts | 269° |
| 2026-04-19 03:36 | 43.68496 | 74.13697 | 38103 ft | 428 kts | 269° |
| 2026-04-19 03:36 | 43.68745 | 74.05468 | 38129 ft | 428 kts | 269° |
| 2026-04-19 03:37 | 43.68986 | 73.97241 | 38121 ft | 429 kts | 269° |
| 2026-04-19 03:37 | 43.69223 | 73.88976 | 38117 ft | 430 kts | 269° |
| 2026-04-19 03:38 | 43.69453 | 73.80715 | 38122 ft | 430 kts | 269° |
| 2026-04-19 03:38 | 43.69466 | 73.72464 | 38122 ft | 428 kts | 264° |
| 2026-04-19 03:39 | 43.69143 | 73.65639 | 38121 ft | 427 kts | 263° |
| 2026-04-19 03:39 | 43.68727 | 73.57413 | 38124 ft | 430 kts | 263° |
| 2026-04-19 03:40 | 43.68302 | 73.49159 | 38124 ft | 430 kts | 263° |
| 2026-04-19 03:40 | 43.67870 | 73.40903 | 38123 ft | 430 kts | 263° |
| 2026-04-19 03:41 | 43.67431 | 73.32651 | 38126 ft | 430 kts | 263° |
| 2026-04-19 03:41 | 43.66984 | 73.24387 | 38129 ft | 432 kts | 263° |
| 2026-04-19 03:42 | 43.66532 | 73.16098 | 38123 ft | 432 kts | 263° |
| 2026-04-19 03:42 | 43.66074 | 73.07813 | 38131 ft | 432 kts | 263° |
| 2026-04-19 03:43 | 43.65609 | 72.99532 | 38134 ft | 432 kts | 263° |
| 2026-04-19 03:43 | 43.65136 | 72.91239 | 38135 ft | 433 kts | 263° |
| 2026-04-19 03:44 | 43.64658 | 72.82932 | 38132 ft | 433 kts | 263° |
| 2026-04-19 03:44 | 43.64178 | 72.74681 | 38132 ft | 434 kts | 263° |
| 2026-04-19 03:45 | 43.63688 | 72.66370 | 38127 ft | 434 kts | 263° |
| 2026-04-19 03:45 | 43.63190 | 72.58055 | 38140 ft | 434 kts | 263° |
| 2026-04-19 03:46 | 43.62685 | 72.49723 | 38128 ft | 436 kts | 263° |
| 2026-04-19 03:46 | 43.62174 | 72.41374 | 38128 ft | 436 kts | 263° |
| 2026-04-19 03:47 | 43.61658 | 72.33031 | 38131 ft | 436 kts | 263° |
| 2026-04-19 03:47 | 43.61133 | 72.24676 | 38132 ft | 437 kts | 263° |
| 2026-04-19 03:48 | 43.60598 | 72.16274 | 38133 ft | 440 kts | 263° |
| 2026-04-19 03:48 | 43.60058 | 72.07844 | 38134 ft | 440 kts | 263° |
| 2026-04-19 03:49 | 43.59512 | 71.99426 | 38131 ft | 440 kts | 263° |
| 2026-04-19 03:49 | 43.58958 | 71.90998 | 38124 ft | 440 kts | 263° |
| 2026-04-19 03:50 | 43.58396 | 71.82565 | 38128 ft | 441 kts | 263° |
| 2026-04-19 03:50 | 43.57829 | 71.74127 | 38131 ft | 441 kts | 263° |
| 2026-04-19 03:51 | 43.57257 | 71.65696 | 38125 ft | 441 kts | 263° |
| 2026-04-19 03:51 | 43.56678 | 71.57261 | 38126 ft | 441 kts | 263° |
| 2026-04-19 03:52 | 43.56091 | 71.48824 | 38122 ft | 442 kts | 263° |
| 2026-04-19 03:52 | 43.55498 | 71.40377 | 38119 ft | 442 kts | 263° |
| 2026-04-19 03:53 | 43.54904 | 71.31986 | 38120 ft | 442 kts | 263° |
| 2026-04-19 03:53 | 43.54294 | 71.23477 | 38118 ft | 442 kts | 263° |
| 2026-04-19 03:54 | 43.53682 | 71.15031 | 38120 ft | 442 kts | 263° |
| 2026-04-19 03:54 | 43.53064 | 71.06589 | 38116 ft | 442 kts | 263° |
| 2026-04-19 03:55 | 43.52443 | 70.98206 | 38111 ft | 442 kts | 263° |
| 2026-04-19 03:55 | 43.51811 | 70.89764 | 38111 ft | 442 kts | 263° |
| 2026-04-19 03:56 | 43.51172 | 70.81323 | 38113 ft | 442 kts | 263° |
| 2026-04-19 03:56 | 43.50518 | 70.72883 | 38113 ft | 443 kts | 263° |
| 2026-04-19 03:57 | 43.49858 | 70.64430 | 38107 ft | 443 kts | 263° |
| 2026-04-19 03:57 | 43.49192 | 70.55970 | 38109 ft | 443 kts | 263° |
| 2026-04-19 03:58 | 43.48519 | 70.47517 | 38101 ft | 443 kts | 263° |
| 2026-04-19 03:58 | 43.47839 | 70.39066 | 38105 ft | 444 kts | 263° |
| 2026-04-19 03:59 | 43.47153 | 70.30606 | 38096 ft | 444 kts | 263° |
| 2026-04-19 03:59 | 43.46460 | 70.22136 | 38099 ft | 444 kts | 263° |
| 2026-04-19 04:00 | 43.45762 | 70.13679 | 38095 ft | 444 kts | 263° |
| 2026-04-19 04:00 | 43.45057 | 70.05219 | 38092 ft | 444 kts | 263° |
| 2026-04-19 04:01 | 43.44342 | 69.96757 | 38094 ft | 445 kts | 263° |
| 2026-04-19 04:01 | 43.43261 | 69.84030 | 38086 ft | 446 kts | 263° |
| 2026-04-19 04:02 | 43.42536 | 69.75609 | 38088 ft | 446 kts | 263° |
| 2026-04-19 04:02 | 43.41826 | 69.67123 | 38082 ft | 446 kts | 263° |
| 2026-04-19 04:03 | 43.41119 | 69.58627 | 38084 ft | 447 kts | 263° |
| 2026-04-19 04:03 | 43.40406 | 69.50132 | 38090 ft | 447 kts | 263° |
| 2026-04-19 04:04 | 43.39684 | 69.41631 | 38087 ft | 447 kts | 263° |
| 2026-04-19 04:04 | 43.38955 | 69.33142 | 38085 ft | 447 kts | 263° |
| 2026-04-19 04:05 | 43.38217 | 69.24644 | 38081 ft | 447 kts | 263° |
| 2026-04-19 04:05 | 43.37477 | 69.16141 | 38078 ft | 447 kts | 263° |
| 2026-04-19 04:06 | 43.36775 | 69.07630 | 38086 ft | 447 kts | 264° |
| 2026-04-19 04:06 | 43.36074 | 68.99133 | 38087 ft | 447 kts | 263° |
| 2026-04-19 04:07 | 43.35361 | 68.90624 | 38082 ft | 448 kts | 264° |
| 2026-04-19 04:07 | 43.34640 | 68.82098 | 38089 ft | 449 kts | 263° |
| 2026-04-19 04:08 | 43.33912 | 68.73572 | 38093 ft | 449 kts | 263° |
| 2026-04-19 04:08 | 43.33176 | 68.65053 | 38098 ft | 449 kts | 263° |
| 2026-04-19 04:09 | 43.32384 | 68.56532 | 38093 ft | 450 kts | 261° |
| 2026-04-19 04:09 | 43.31375 | 68.48044 | 38094 ft | 450 kts | 261° |
| 2026-04-19 04:10 | 43.30350 | 68.39553 | 38093 ft | 450 kts | 261° |
| 2026-04-19 04:10 | 43.28986 | 68.31143 | 38094 ft | 451 kts | 257° |
| 2026-04-19 04:11 | 43.27447 | 68.22785 | 38091 ft | 451 kts | 257° |
| 2026-04-19 04:11 | 43.25901 | 68.14425 | 38098 ft | 452 kts | 257° |
| 2026-04-19 04:12 | 43.24348 | 68.06066 | 38103 ft | 452 kts | 257° |
| 2026-04-19 04:12 | 43.22790 | 67.97716 | 38096 ft | 452 kts | 257° |
| 2026-04-19 04:13 | 43.21212 | 67.89317 | 38096 ft | 452 kts | 257° |
| 2026-04-19 04:13 | 43.19638 | 67.80966 | 38103 ft | 452 kts | 257° |
| 2026-04-19 04:14 | 43.18060 | 67.72617 | 38104 ft | 452 kts | 257° |
| 2026-04-19 04:14 | 43.16474 | 67.64274 | 38107 ft | 452 kts | 257° |
| 2026-04-19 04:15 | 43.14880 | 67.55934 | 38103 ft | 452 kts | 257° |